EFROEFIV

Guest
Details From EFRO - Rovaniemi
To EFIV - Ivalo
Flight Number -
Tags generated
Created
Modified
Stats Distance 128 nm / 237 km
Max Altitude 15,200 ft / 4,633 m
Waypoints 5
Social Downloads 1
Likes 0
Share VATSIM

Download

Looking for another format? Having issues loading an existing format? Contact us
Advertisement - Login to hide

Notes

Basic altitude profile: - Ascent Rate: 2500ft/min - Ascent Speed: 207kts - Cruise Altitude: 35000ft - Cruise Speed: 420kts - Descent Rate: 1500ft/min - Descent Speed: 250kts Options: - Use NATs: yes - Use PACOTS: yes - Use low airways: yes - Use high airways: yes

Route

EFRO ASKUS M857 TENKU EFIV

ID Type Via Altitude Latitude Longitude Leg Dist Tot Dist Heading (true) Name
O EFRO APT - 0 ft / 0 m 66.56482˚ 25.83042˚ - 0 nm - Rovaniemi
ASKUS FIX - 8,800 ft / 2,682 m 66.95806˚ 26.13944˚ 24 nm 24 nm 17° / 17° -
NAPSU FIX M857 (AWY-LO) 15,200 ft / 4,633 m 67.24194˚ 26.37528˚ 17 nm 42 nm 18° / 18° -
TENKU FIX M857 (AWY-LO) 9,500 ft / 2,896 m 68.21833˚ 27.23278˚ 61 nm 104 nm 18° / 19° -
O EFIV APT - 0 ft / 0 m 68.60661˚ 27.41923˚ 23 nm 128 nm 10° / 10° Ivalo

Altitude Profile

Advertisement - Login to hide

EFRO

Details ICAO EFRO (RVN)
Name Rovaniemi
Region Finland
Timezone Europe/Helsinki (UTC+2.0)
Stats Elevation 632 ft / 193 m (AMSL)
Location 66.564822° 25.830420°
Runways 1
Magnetic Variation 11.494° E

METAR

EFRO 171150Z AUTO 22010KT 1200 BR VV002 M06/M07 Q1000

Decode

TAF

TAF EFRO 171141Z 1712/1812 VRB03KT 5000 BR BKN002 TEMPO 1712/1721 1500 -FZDZ BKN001 PROB30 1712/1721 0500 FZFG BECMG 1721/1724 0400 FZFG VV001

Decode

Departure Runways

ID Width Length Bearing (true) Bearing (mag) Surface Threshold Offset Overrun Length
03 197 ft / 60 m 9,819 ft / 2,993 m 37.14° 25.65° Asphalt 0 ft / 0 m 235 ft / 72 m
21 197 ft / 60 m 9,819 ft / 2,993 m 217.18° 205.69° Asphalt 0 ft / 0 m 218 ft / 66 m

EFIV

Details ICAO EFIV (IVL)
Name Ivalo
Region Finland
Timezone Europe/Helsinki (UTC+2.0)
Stats Elevation 481 ft / 147 m (AMSL)
Location 68.606615° 27.419231°
Runways 2
Magnetic Variation 13.129° E

METAR

EFIV 171150Z 22008KT 9999 OVC008 M09/M10 Q0999

Decode

TAF

Not found

Destination Runways

ID Width Length Bearing (true) Bearing (mag) Surface Threshold Offset Overrun Length
04 148 ft / 45 m 8,173 ft / 2,491 m 46.96° 33.83° Asphalt 0 ft / 0 m 721 ft / 220 m
08 148 ft / 45 m 2,616 ft / 797 m 92.19° 79.06° Asphalt 500 ft / 152 m 0 ft / 0 m
22 148 ft / 45 m 8,173 ft / 2,491 m 227.01° 213.88° Asphalt 0 ft / 0 m 209 ft / 64 m
26 148 ft / 45 m 2,616 ft / 797 m 272.21° 259.08° Asphalt 500 ft / 152 m 0 ft / 0 m

Approach Navaids

Runway Type Ident Frequency Range Bearing (true) Bearing (mag) Slope Elevation
22 Localiser IV 109.90 MHz 18 nm / 33 km 226.96° 213.83° - 515 ft / 157 m (AMSL)
22 Glidescope IV 109.90 MHz 10 nm / 19 km 226.99° 213.86° 3.00° 481 ft / 147 m (AMSL)